Time;durP1;ratioP1;P1;durP2;ratioP2;P2;SDS_P1;SDS_P2;PMS_P1;PMS_P2;Temp;Humidity;BMP_temperature;BMP_pressure;BME280_temperature;BME280_humidity;BME280_pressure;Samples;Min_cycle;Max_cycle;Signal;HPM_P1;HPM_P2
2022/04/06 00:00:24;;;;;;;3.15;1.83;;;;;;;15.97;39.36;96459.59;5137032;27;20098;-31
2022/04/06 00:02:50;;;;;;;3.65;2.00;;;;;;;15.96;39.16;96462.78;5136637;27;20538;-30
2022/04/06 00:05:15;;;;;;;2.78;1.70;;;;;;;16.02;39.36;96458.22;5136847;27;20035;-30
2022/04/06 00:07:42;;;;;;;3.15;1.80;;;;;;;15.96;39.33;96460.06;5136924;27;20427;-31
2022/04/06 00:10:09;;;;;;;5.07;2.08;;;;;;;15.91;39.40;96460.69;5137113;27;20072;-31
2022/04/06 00:12:35;;;;;;;5.60;2.78;;;;;;;15.97;39.19;96459.59;5136527;27;20030;-30
2022/04/06 00:15:01;;;;;;;5.63;2.50;;;;;;;15.93;39.39;96458.25;5118493;27;20027;-31
2022/04/06 00:17:27;;;;;;;4.55;2.33;;;;;;;15.93;39.38;96461.00;5136766;27;20030;-30
2022/04/06 00:19:53;;;;;;;4.47;2.40;;;;;;;16.00;39.23;96449.72;5136717;27;20049;-30
2022/04/06 00:22:19;;;;;;;4.55;2.30;;;;;;;15.95;39.44;96445.63;5136466;27;20076;-30
2022/04/06 00:24:45;;;;;;;5.30;2.40;;;;;;;15.88;39.52;96440.50;5136496;27;20031;-31
2022/04/06 00:27:11;;;;;;;4.13;2.33;;;;;;;15.92;39.38;96445.81;5136671;27;20098;-31
2022/04/06 00:29:37;;;;;;;3.30;2.28;;;;;;;15.88;39.46;96440.50;5136537;27;20020;-30
2022/04/06 00:32:02;;;;;;;4.00;2.10;;;;;;;15.87;39.41;96438.97;5136449;27;20045;-30
2022/04/06 00:37:12;;;;;;;4.30;2.33;;;;;;;15.89;39.64;96430.31;5136088;27;20091;-31
2022/04/06 00:39:38;;;;;;;4.25;1.90;;;;;;;15.87;39.59;96427.28;5135819;27;20487;-30
2022/04/06 00:42:04;;;;;;;3.95;1.83;;;;;;;15.85;39.49;96421.50;5136296;27;20023;-31
2022/04/06 00:44:34;;;;;;;2.97;1.90;;;;;;;15.88;39.43;96418.63;5136180;27;20036;-30
2022/04/06 00:47:02;;;;;;;4.13;2.10;;;;;;;15.90;39.45;96415.41;5136163;27;20019;-31
2022/04/06 00:49:28;;;;;;;3.70;2.13;;;;;;;15.82;39.60;96415.72;5135994;27;20023;-30
2022/04/06 00:51:54;;;;;;;2.72;1.80;;;;;;;15.87;39.42;96414.38;5136206;27;20055;-32
2022/04/06 00:54:22;;;;;;;3.75;2.00;;;;;;;15.80;39.64;96414.69;5135926;27;20469;-31
2022/04/06 00:56:48;;;;;;;3.35;1.98;;;;;;;15.76;39.74;96411.38;5136145;27;20379;-30
2022/04/06 00:59:18;;;;;;;2.55;1.60;;;;;;;15.82;39.44;96404.78;5135584;27;20554;-30
2022/04/06 01:01:45;;;;;;;2.83;1.65;;;;;;;15.75;39.84;96410.59;5135890;27;20023;-31
2022/04/06 01:04:12;;;;;;;2.60;1.58;;;;;;;15.72;39.80;96405.28;5135595;27;20134;-31
2022/04/06 01:06:37;;;;;;;2.38;1.70;;;;;;;15.77;39.90;96407.41;5135624;27;20035;-31
2022/04/06 01:09:03;;;;;;;3.25;2.05;;;;;;;15.72;39.68;96397.09;5135640;27;20395;-30
2022/04/06 01:11:29;;;;;;;2.92;1.90;;;;;;;15.72;39.75;96399.81;5135734;27;20015;-31
2022/04/06 01:13:56;;;;;;;3.25;1.95;;;;;;;15.74;39.75;96391.91;5135451;27;20031;-30
2022/04/06 01:16:21;;;;;;;3.20;1.80;;;;;;;15.73;39.69;96393.91;5135619;27;20051;-31
2022/04/06 01:18:47;;;;;;;4.13;1.95;;;;;;;15.75;39.84;96383.25;5135398;27;20061;-30
2022/04/06 01:21:13;;;;;;;4.40;2.60;;;;;;;15.72;39.70;96388.88;5135362;27;20030;-30
2022/04/06 01:23:42;;;;;;;4.25;2.33;;;;;;;15.76;39.83;96387.50;5135670;27;20031;-30
2022/04/06 01:26:12;;;;;;;3.50;1.75;;;;;;;15.75;39.65;96377.03;5135236;27;20027;-30
2022/04/06 01:28:38;;;;;;;4.45;2.17;;;;;;;15.65;39.98;96389.22;5135354;27;20383;-31
2022/04/06 01:31:04;;;;;;;3.47;2.03;;;;;;;15.70;39.87;96381.13;5135031;27;20030;-31
2022/04/06 01:33:30;;;;;;;5.15;2.38;;;;;;;15.70;39.86;96378.41;5135547;27;20027;-31
2022/04/06 01:35:57;;;;;;;5.75;2.17;;;;;;;15.71;39.77;96366.25;5135031;27;20510;-30
2022/04/06 01:38:23;;;;;;;3.47;2.40;;;;;;;15.72;39.68;96367.78;5135124;27;20019;-31
2022/04/06 01:40:49;;;;;;;4.28;2.25;;;;;;;15.70;39.90;96364.00;5135042;27;20098;-31
2022/04/06 01:43:14;;;;;;;3.97;2.08;;;;;;;15.72;39.78;96359.56;5134981;27;20531;-30
2022/04/06 01:45:40;;;;;;;3.05;2.42;;;;;;;15.70;39.57;96361.28;5135162;27;20486;-31
2022/04/06 01:48:05;;;;;;;3.92;2.13;;;;;;;15.74;39.80;96365.34;5135238;27;20054;-31
2022/04/06 01:53:15;;;;;;;3.88;2.30;;;;;;;15.66;39.92;96361.44;5134962;27;20099;-31
2022/04/06 01:55:40;;;;;;;3.83;2.28;;;;;;;15.71;39.78;96349.09;5134709;27;20470;-30
2022/04/06 01:58:07;;;;;;;4.60;2.80;;;;;;;15.60;39.99;96354.28;5134754;27;20027;-30
2022/04/06 02:00:33;;;;;;;4.63;2.50;;;;;;;15.63;40.12;96350.66;5134767;27;20160;-30
2022/04/06 02:03:00;;;;;;;3.50;2.13;;;;;;;15.62;39.95;96346.41;5134577;27;20401;-31
2022/04/06 02:05:31;;;;;;;4.40;2.53;;;;;;;15.59;39.81;96350.81;5116205;27;20386;-31
2022/04/06 02:07:57;;;;;;;4.07;2.50;;;;;;;15.64;39.98;96350.19;5134672;27;20031;-31
2022/04/06 02:10:23;;;;;;;3.45;2.45;;;;;;;15.68;39.89;96350.78;5134640;27;20105;-31
2022/04/06 02:12:49;;;;;;;5.53;2.40;;;;;;;15.67;39.65;96349.28;5134400;27;20050;-30
2022/04/06 02:15:15;;;;;;;3.35;2.58;;;;;;;15.69;39.84;96351.56;5134827;27;20102;-30
2022/04/06 02:17:42;;;;;;;4.63;2.45;;;;;;;15.67;39.96;96353.97;5134679;27;20026;-30
2022/04/06 02:20:09;;;;;;;6.15;2.95;;;;;;;15.66;39.98;96352.47;5134658;27;20031;-30
2022/04/06 02:22:35;;;;;;;4.22;2.33;;;;;;;15.64;39.90;96350.19;5115905;27;20038;-31
2022/04/06 02:25:00;;;;;;;3.83;2.45;;;;;;;15.60;40.08;96343.38;5134238;27;20023;-31
2022/04/06 02:27:26;;;;;;;6.00;2.80;;;;;;;15.61;39.79;96350.34;5134343;27;20015;-30
2022/04/06 02:29:51;;;;;;;4.45;2.75;;;;;;;15.59;40.13;96345.34;5134356;27;20440;-31
2022/04/06 02:32:17;;;;;;;3.58;2.33;;;;;;;15.59;39.99;96350.03;5134307;28;20053;-31
2022/04/06 02:34:42;;;;;;;4.93;2.72;;;;;;;15.63;40.11;96345.19;5134301;28;20023;-30
2022/04/06 02:37:09;;;;;;;4.20;2.30;;;;;;;15.58;40.13;96343.81;5134315;28;20023;-30
2022/04/06 02:39:35;;;;;;;4.13;2.55;;;;;;;15.63;39.94;96345.19;5134185;28;20031;-30
2022/04/06 02:42:01;;;;;;;4.28;2.92;;;;;;;15.56;40.06;96343.53;5134382;28;20042;-31
2022/04/06 02:44:26;;;;;;;4.50;3.22;;;;;;;15.57;40.10;96338.84;5134115;28;20027;-30
2022/04/06 02:46:52;;;;;;;5.28;2.75;;;;;;;15.55;40.13;96346.75;5134304;28;20438;-30
2022/04/06 02:49:18;;;;;;;4.65;2.78;;;;;;;15.50;40.39;96341.84;5134328;28;20015;-31
2022/04/06 02:51:43;;;;;;;3.67;2.50;;;;;;;15.57;40.19;96328.66;5134048;28;20042;-31
2022/04/06 02:54:09;;;;;;;3.70;2.58;;;;;;;15.52;40.23;96334.72;5134168;28;20026;-31
2022/04/06 02:56:35;;;;;;;4.85;2.88;;;;;;;15.61;40.13;96339.41;5134257;28;20024;-30
2022/04/06 02:59:01;;;;;;;3.28;2.58;;;;;;;15.57;40.00;96334.13;5133895;28;20035;-30
2022/04/06 03:01:27;;;;;;;3.60;2.47;;;;;;;15.58;39.96;96334.88;5135850;27;20360;-31
2022/04/06 03:03:53;;;;;;;3.83;2.90;;;;;;;15.55;40.07;96335.81;5138056;27;20050;-30
2022/04/06 03:06:18;;;;;;;5.65;2.72;;;;;;;15.54;39.96;96335.03;5138174;27;20034;-31
2022/04/06 03:08:44;;;;;;;3.38;2.45;;;;;;;15.55;40.07;96327.59;5138014;27;20015;-30
2022/04/06 03:11:10;;;;;;;5.40;2.80;;;;;;;15.59;40.02;96319.97;5137912;27;20062;-30
2022/04/06 03:13:35;;;;;;;3.75;2.78;;;;;;;15.53;39.96;96327.28;5138035;27;20050;-30
2022/04/06 03:16:01;;;;;;;5.22;2.90;;;;;;;15.49;40.20;96330.16;5138170;27;20034;-30
2022/04/06 03:18:27;;;;;;;4.78;2.78;;;;;;;15.48;40.02;96325.16;5137957;27;20019;-31
2022/04/06 03:20:52;;;;;;;5.57;2.75;;;;;;;15.41;40.24;96327.00;5137699;27;20023;-30
2022/04/06 03:23:18;;;;;;;7.40;2.88;;;;;;;15.53;39.86;96324.53;5137857;27;20027;-30
2022/04/06 03:25:44;;;;;;;5.20;3.08;;;;;;;15.52;40.02;96325.75;5137508;27;20097;-31
2022/04/06 03:28:10;;;;;;;5.82;2.95;;;;;;;15.52;39.96;96331.22;5119202;27;20041;-30
2022/04/06 03:30:36;;;;;;;3.92;2.80;;;;;;;15.46;40.00;96323.63;5137629;27;20019;-30
2022/04/06 03:33:02;;;;;;;4.38;2.40;;;;;;;15.47;40.00;96313.47;5137845;27;20034;-30
2022/04/06 03:35:28;;;;;;;7.78;3.47;;;;;;;15.46;39.88;96320.16;5137548;27;20386;-30
2022/04/06 03:37:53;;;;;;;6.22;3.33;;;;;;;15.49;39.85;96323.94;5137968;27;20041;-30
2022/04/06 03:40:19;;;;;;;5.03;2.88;;;;;;;15.46;39.86;96323.63;5137279;27;20019;-31
2022/04/06 03:42:45;;;;;;;4.05;2.80;;;;;;;15.41;39.89;96318.81;5137461;27;20098;-31
2022/04/06 03:45:11;;;;;;;3.78;2.15;;;;;;;15.44;39.84;96317.13;5137318;27;20050;-30
2022/04/06 03:47:37;;;;;;;5.60;2.47;;;;;;;15.45;39.64;96305.72;5137210;27;20364;-30
2022/04/06 03:50:04;;;;;;;5.63;3.22;;;;;;;15.42;39.67;96312.13;5137198;27;20027;-30
2022/04/06 03:52:30;;;;;;;6.35;2.92;;;;;;;15.43;39.71;96307.44;5137827;27;20068;-30
2022/04/06 03:54:56;;;;;;;3.22;2.20;;;;;;;15.36;39.92;96308.50;5137265;27;20086;-31
2022/04/06 03:57:22;;;;;;;3.83;2.22;;;;;;;15.45;39.55;96311.19;5137319;27;20027;-30
2022/04/06 03:59:48;;;;;;;5.82;2.60;;;;;;;15.37;39.68;96303.78;5137019;27;20023;-30
2022/04/06 04:02:13;;;;;;;5.88;2.53;;;;;;;15.42;39.67;96306.66;5136817;27;20053;-30
2022/04/06 04:04:39;;;;;;;4.25;2.35;;;;;;;15.35;39.62;96304.25;5137073;27;20022;-31
2022/04/06 04:07:07;;;;;;;4.05;2.22;;;;;;;15.35;39.90;96312.44;5137001;27;20023;-30
2022/04/06 04:09:33;;;;;;;3.70;2.50;;;;;;;15.41;39.75;96304.38;5137120;27;20075;-30
2022/04/06 04:11:58;;;;;;;3.28;2.40;;;;;;;15.40;39.63;96308.34;5136297;27;20019;-30
2022/04/06 04:14:24;;;;;;;3.95;2.33;;;;;;;15.37;39.76;96304.53;5136370;27;20382;-30
2022/04/06 04:16:50;;;;;;;3.00;2.20;;;;;;;15.32;39.89;96305.19;5136781;27;20038;-30
2022/04/06 04:19:19;;;;;;;3.17;2.45;;;;;;;15.31;39.95;96311.88;5136670;27;20023;-30
2022/04/06 04:21:44;;;;;;;5.47;2.38;;;;;;;15.34;39.81;96319.13;5136817;27;20027;-30
2022/04/06 04:24:10;;;;;;;3.65;2.03;;;;;;;15.34;39.80;96319.13;5136534;27;20024;-30
2022/04/06 04:26:38;;;;;;;4.43;2.47;;;;;;;15.35;39.63;96317.91;5136738;27;20067;-31
2022/04/06 04:29:05;;;;;;;5.38;2.63;;;;;;;15.34;39.72;96310.94;5136417;27;20023;-31
2022/04/06 04:31:31;;;;;;;4.28;2.30;;;;;;;15.32;39.80;96321.59;5136420;27;20023;-30
2022/04/06 04:33:57;;;;;;;4.28;2.13;;;;;;;15.34;39.69;96318.38;5136452;27;20031;-31
2022/04/06 04:36:23;;;;;;;3.97;2.20;;;;;;;15.30;39.71;96318.53;5136361;27;20019;-30
2022/04/06 04:38:49;;;;;;;5.28;2.47;;;;;;;15.31;39.66;96309.13;5136591;27;20031;-30
2022/04/06 04:41:14;;;;;;;5.43;2.42;;;;;;;15.27;39.77;96307.78;5136080;27;20027;-30
2022/04/06 04:43:40;;;;;;;3.67;2.38;;;;;;;15.29;39.68;96308.06;5136530;27;20348;-30
2022/04/06 04:46:07;;;;;;;4.38;2.90;;;;;;;15.29;39.71;96303.38;5136377;27;20038;-30
2022/04/06 04:48:33;;;;;;;7.05;2.78;;;;;;;15.34;39.54;96301.97;5136102;27;20022;-30
2022/04/06 04:50:58;;;;;;;10.02;2.80;;;;;;;15.29;39.74;96297.91;5136050;27;20094;-30
2022/04/06 04:53:25;;;;;;;4.18;2.60;;;;;;;15.30;39.72;96302.16;5136228;27;20474;-31
2022/04/06 04:55:51;;;;;;;6.43;2.70;;;;;;;15.26;39.83;96306.25;5135930;27;20030;-30
2022/04/06 04:58:17;;;;;;;4.50;2.70;;;;;;;15.29;39.67;96306.09;5135790;27;20031;-31
2022/04/06 05:00:42;;;;;;;4.95;2.60;;;;;;;15.29;39.72;96303.38;5135886;27;20110;-31
2022/04/06 05:03:08;;;;;;;5.47;3.10;;;;;;;15.30;39.70;96310.34;5135536;27;20070;-30
2022/04/06 05:05:35;;;;;;;3.80;2.88;;;;;;;15.32;39.78;96310.66;5135903;27;20087;-30
2022/04/06 05:08:00;;;;;;;4.78;2.67;;;;;;;15.32;39.60;96298.97;5135810;27;20091;-30
2022/04/06 05:10:27;;;;;;;5.03;2.90;;;;;;;15.31;39.75;96300.94;5135836;27;20470;-30
2022/04/06 05:12:53;;;;;;;5.63;2.50;;;;;;;15.24;39.75;96292.28;5135545;27;20079;-30
2022/04/06 05:15:21;;;;;;;4.00;2.40;;;;;;;15.25;39.93;96307.47;5135630;27;20442;-30
2022/04/06 05:17:47;;;;;;;6.75;2.75;;;;;;;15.28;40.29;96304.59;5135404;27;20019;-30
2022/04/06 05:20:13;;;;;;;7.53;2.90;;;;;;;15.27;39.94;96302.31;5135367;27;20023;-30
2022/04/06 05:22:39;;;;;;;5.65;2.72;;;;;;;15.25;40.00;96300.03;5135425;27;20072;-30
2022/04/06 05:25:07;;;;;;;6.43;2.78;;;;;;;15.25;39.86;96291.06;5135160;27;20027;-30
2022/04/06 05:27:52;;;;;;;8.57;2.88;;;;;;;15.22;39.93;96298.22;5116786;27;20426;-30
2022/04/06 05:30:20;;;;;;;5.38;2.47;;;;;;;15.19;40.26;96307.34;5128382;27;20058;-31
2022/04/06 05:32:48;;;;;;;6.35;2.40;;;;;;;15.25;40.04;96296.53;5115777;27;20031;-31
2022/04/06 05:35:13;;;;;;;6.13;2.97;;;;;;;15.24;40.28;96308.69;5116266;27;20023;-30
2022/04/06 05:37:40;;;;;;;7.95;3.15;;;;;;;15.23;39.97;96302.47;5133009;27;20041;-30
2022/04/06 05:40:07;;;;;;;8.73;3.05;;;;;;;15.24;39.95;96309.44;5132930;27;20038;-30
2022/04/06 05:42:33;;;;;;;4.65;2.42;;;;;;;15.14;40.45;96313.41;5132757;27;20111;-30
2022/04/06 05:44:59;;;;;;;7.53;2.85;;;;;;;15.21;40.58;96304.88;5132924;27;20023;-33
2022/04/06 05:47:25;;;;;;;11.93;3.15;;;;;;;15.24;40.20;96314.91;5128716;27;20037;-33
2022/04/06 05:49:51;;;;;;;8.18;3.40;;;;;;;15.27;40.32;96315.97;5110712;28;20020;-33
2022/04/06 05:52:17;;;;;;;7.35;2.60;;;;;;;15.15;40.54;96314.19;5093945;28;20020;-33
2022/04/06 05:54:42;;;;;;;9.60;2.70;;;;;;;15.20;40.42;96322.53;5093779;28;20024;-33
2022/04/06 05:57:07;;;;;;;7.10;3.22;;;;;;;15.26;40.32;96331.59;5112278;28;20035;-32
2022/04/06 05:59:33;;;;;;;8.07;2.95;;;;;;;15.22;40.46;96328.25;5093873;28;20035;-31
2022/04/06 06:01:59;;;;;;;10.52;3.58;;;;;;;15.28;40.43;96322.94;5112129;28;20015;-30
2022/04/06 06:04:24;;;;;;;6.90;3.40;;;;;;;15.21;40.53;96321.28;5111851;28;20051;-30
2022/04/06 06:06:49;;;;;;;6.10;3.50;;;;;;;15.24;40.45;96320.38;5111810;28;20493;-32
2022/04/06 06:09:15;;;;;;;9.13;4.18;;;;;;;15.18;40.58;96311.28;5111831;28;20028;-30
2022/04/06 06:11:41;;;;;;;9.00;3.70;;;;;;;15.19;40.62;96312.81;5111851;28;20028;-31
2022/04/06 06:14:07;;;;;;;6.35;3.30;;;;;;;15.19;40.85;96310.06;5111966;28;20024;-30
2022/04/06 06:16:33;;;;;;;6.85;3.80;;;;;;;15.20;40.66;96305.38;5111805;28;20039;-30
2022/04/06 06:18:58;;;;;;;4.72;3.20;;;;;;;15.19;40.80;96310.06;5111450;28;20077;-32
2022/04/06 06:21:26;;;;;;;5.35;3.15;;;;;;;15.21;40.67;96306.88;5111863;28;20023;-31
2022/04/06 06:23:53;;;;;;;5.72;3.05;;;;;;;15.23;40.82;96307.91;5115028;28;20030;-30
2022/04/06 06:26:20;;;;;;;8.75;3.33;;;;;;;15.22;40.88;96313.84;5132143;27;20276;-30
2022/04/06 06:28:45;;;;;;;7.70;3.17;;;;;;;15.22;40.83;96311.88;5131841;27;20066;-31
2022/04/06 06:31:11;;;;;;;5.18;2.97;;;;;;;15.22;40.92;96320.06;5132158;27;20046;-31
2022/04/06 06:33:37;;;;;;;8.32;2.90;;;;;;;15.26;40.81;96317.94;5132138;28;20015;-30
2022/04/06 06:36:02;;;;;;;6.72;2.78;;;;;;;15.29;40.90;96308.84;5131210;27;20375;-30
2022/04/06 06:38:28;;;;;;;5.72;2.85;;;;;;;15.30;40.69;96310.34;5132006;28;20119;-30
2022/04/06 06:40:54;;;;;;;4.90;2.90;;;;;;;15.33;40.69;96303.94;5131560;28;20100;-30
2022/04/06 06:43:20;;;;;;;4.03;2.78;;;;;;;15.34;40.42;96307.44;5131936;28;20101;-32
2022/04/06 06:45:46;;;;;;;4.75;2.78;;;;;;;15.32;40.86;96302.44;5131979;28;20023;-30
2022/04/06 06:48:11;;;;;;;4.32;2.65;;;;;;;15.36;40.61;96315.94;5132090;28;20380;-30
2022/04/06 06:50:37;;;;;;;6.40;2.80;;;;;;;15.40;40.54;96308.34;5130091;28;20030;-30
2022/04/06 06:53:02;;;;;;;4.80;2.40;;;;;;;15.32;40.62;96310.66;5131694;28;20309;-30
2022/04/06 06:55:28;;;;;;;5.10;2.85;;;;;;;15.28;40.96;96318.25;5131960;28;20023;-31
2022/04/06 06:57:53;;;;;;;6.72;2.55;;;;;;;15.29;40.71;96311.56;5131746;28;20023;-30
2022/04/06 07:00:19;;;;;;;4.35;2.35;;;;;;;15.30;40.71;96310.34;5131740;28;20079;-32
2022/04/06 07:02:45;;;;;;;4.80;2.65;;;;;;;15.23;40.76;96305.19;5126037;28;20105;-30
2022/04/06 07:05:11;;;;;;;3.83;2.30;;;;;;;15.14;40.93;96291.56;5111054;28;20024;-30
2022/04/06 07:07:49;;;;;;;4.70;2.30;;;;;;;15.25;40.78;96289.09;5111087;28;20050;-30
2022/04/06 07:10:15;;;;;;;4.50;2.65;;;;;;;15.30;40.79;96285.75;5110326;28;20069;-31
2022/04/06 07:12:41;;;;;;;2.95;2.15;;;;;;;15.24;40.76;96281.34;5110890;28;20024;-30
2022/04/06 07:15:07;;;;;;;4.13;2.47;;;;;;;15.34;40.69;96283.59;5111294;28;20028;-31
2022/04/06 07:17:33;;;;;;;3.72;2.20;;;;;;;15.25;40.81;96280.91;5110614;28;20023;-32
2022/04/06 07:19:58;;;;;;;3.90;2.25;;;;;;;15.25;40.75;96280.16;5111249;28;20023;-30
2022/04/06 07:22:24;;;;;;;4.13;2.47;;;;;;;15.30;40.81;96293.97;5101154;28;20088;-30
2022/04/06 07:24:49;;;;;;;3.83;2.00;;;;;;;15.39;40.61;96293.16;5101999;28;20031;-31
2022/04/06 07:27:16;;;;;;;3.83;2.70;;;;;;;15.37;40.85;96285.41;5111177;28;20020;-30
2022/04/06 07:29:43;;;;;;;5.63;2.92;;;;;;;15.33;40.98;96289.56;5110907;28;20020;-30
2022/04/06 07:32:09;;;;;;;4.20;2.45;;;;;;;15.31;41.05;96294.72;5110844;28;20523;-30
2022/04/06 07:34:34;;;;;;;3.35;2.30;;;;;;;15.30;41.00;96282.28;5111050;28;20115;-30
2022/04/06 07:37:00;;;;;;;3.70;2.17;;;;;;;15.20;41.27;96292.47;5111070;28;20019;-31
2022/04/06 07:39:27;;;;;;;4.40;2.22;;;;;;;15.28;41.02;96296.38;5110957;28;20038;-30
2022/04/06 07:41:56;;;;;;;4.35;2.38;;;;;;;15.28;41.09;96284.69;5110855;28;20032;-30
2022/04/06 07:44:24;;;;;;;3.30;2.10;;;;;;;15.18;41.52;96286.72;5111030;28;20034;-30
2022/04/06 07:46:52;;;;;;;3.35;2.10;;;;;;;15.20;41.41;96283.53;5111722;28;20027;-31
2022/04/06 07:49:18;;;;;;;4.85;2.25;;;;;;;15.19;41.45;96284.72;5113860;28;20019;-30
2022/04/06 07:51:45;;;;;;;3.20;2.28;;;;;;;15.29;41.36;96297.91;5113804;28;20089;-31
2022/04/06 07:54:11;;;;;;;3.83;2.08;;;;;;;15.20;41.78;96297.94;5114341;28;20543;-30
2022/04/06 07:56:37;;;;;;;3.70;2.25;;;;;;;15.34;41.34;96316.38;5114797;28;20098;-30
2022/04/06 07:59:02;;;;;;;4.82;2.00;;;;;;;15.33;41.19;96316.88;5114337;28;20386;-31
2022/04/06 08:01:28;;;;;;;3.70;2.35;;;;;;;15.34;41.40;96319.13;5114585;28;20471;-30
2022/04/06 08:03:53;;;;;;;4.68;2.20;;;;;;;15.23;41.73;96316.13;5129638;27;20069;-31
2022/04/06 08:06:19;;;;;;;4.40;2.25;;;;;;;15.24;41.84;96311.41;5133518;27;20023;-30
2022/04/06 08:08:45;;;;;;;3.42;2.15;;;;;;;15.31;41.63;96314.59;5134865;27;20027;-30
2022/04/06 08:11:10;;;;;;;4.68;2.20;;;;;;;15.23;41.58;96310.66;5134799;27;20027;-30
2022/04/06 08:13:35;;;;;;;3.22;2.25;;;;;;;15.25;41.72;96318.41;5134868;27;20022;-31
2022/04/06 08:16:01;;;;;;;2.65;1.95;;;;;;;15.16;42.00;96308.25;5134788;27;20425;-31
2022/04/06 08:18:28;;;;;;;3.65;2.17;;;;;;;15.21;41.84;96304.13;5134140;27;20111;-30
2022/04/06 08:20:54;;;;;;;2.90;2.00;;;;;;;15.28;41.58;96310.03;5116161;27;20490;-31
2022/04/06 08:23:20;;;;;;;3.92;2.15;;;;;;;15.27;41.58;96305.78;5134702;27;20031;-30
2022/04/06 08:25:46;;;;;;;4.25;2.15;;;;;;;15.26;41.56;96304.28;5114960;27;20042;-31
2022/04/06 08:28:12;;;;;;;4.75;2.80;;;;;;;14.36;43.64;96301.16;5117508;27;20023;-31
2022/04/06 08:30:42;;;;;;;6.25;3.05;;;;;;;14.69;43.33;96301.34;5136548;27;20092;-31
2022/04/06 08:33:09;;;;;;;5.10;2.60;;;;;;;14.82;42.68;96303.94;5136630;27;20051;-30
2022/04/06 08:35:35;;;;;;;5.70;3.15;;;;;;;14.93;42.42;96308.91;5136377;27;20490;-31
2022/04/06 08:38:03;;;;;;;4.97;2.72;;;;;;;15.04;42.21;96303.72;5136434;27;20019;-30
2022/04/06 08:40:30;;;;;;;4.78;3.08;;;;;;;15.09;41.97;96306.59;5136319;27;20023;-31
2022/04/06 08:42:56;;;;;;;4.30;2.47;;;;;;;15.10;41.97;96308.09;5136469;27;20042;-31
2022/04/06 08:45:22;;;;;;;3.88;2.67;;;;;;;15.12;42.12;96299.47;5136042;27;20386;-30
2022/04/06 08:47:49;;;;;;;4.10;2.70;;;;;;;15.15;42.00;96314.19;5136132;27;20467;-31
2022/04/06 08:50:18;;;;;;;4.55;2.80;;;;;;;15.23;41.65;96315.34;5136026;27;20019;-31
2022/04/06 08:52:44;;;;;;;4.55;2.70;;;;;;;15.09;42.13;96314.78;5136167;27;20023;-31
2022/04/06 08:55:12;;;;;;;5.05;2.97;;;;;;;15.02;42.29;96311.63;5136169;27;20027;-31
2022/04/06 08:57:40;;;;;;;4.57;2.80;;;;;;;15.14;41.93;96321.63;5136200;27;20023;-31
2022/04/06 09:00:06;;;;;;;5.18;2.70;;;;;;;15.16;41.93;96321.16;5135215;27;20027;-31
2022/04/06 09:02:31;;;;;;;3.83;2.40;;;;;;;15.13;42.11;96325.56;5135718;27;20039;-31
2022/04/06 09:04:57;;;;;;;4.57;2.50;;;;;;;14.95;42.76;96331.81;5135949;27;20049;-31
2022/04/06 09:07:24;;;;;;;3.97;2.70;;;;;;;14.96;42.83;96338.03;5135818;27;20027;-31
2022/04/06 09:09:54;;;;;;;4.82;2.63;;;;;;;15.05;42.55;96335.28;5135638;27;20019;-31
2022/04/06 09:12:23;;;;;;;6.45;2.47;;;;;;;15.08;42.29;96334.38;5135646;27;20027;-30
2022/04/06 09:15:12;;;;;;;3.80;2.40;;;;;;;15.15;42.35;96341.50;5135843;27;20022;-31
2022/04/06 09:17:48;;;;;;;3.05;2.30;;;;;;;15.19;42.49;96331.94;5135612;27;20438;-31
2022/04/06 09:20:15;;;;;;;3.90;2.60;;;;;;;15.20;42.42;96335.41;5135432;27;20098;-31
2022/04/06 09:22:42;;;;;;;3.35;2.13;;;;;;;15.20;42.29;96338.91;5117294;27;20027;-31
2022/04/06 09:25:09;;;;;;;4.00;2.60;;;;;;;15.15;42.45;96336.78;5135763;27;20094;-31
2022/04/06 09:27:35;;;;;;;4.80;2.58;;;;;;;15.15;42.27;96336.78;5135479;27;20015;-32
2022/04/06 09:30:05;;;;;;;5.63;2.95;;;;;;;15.12;42.46;96336.94;5117045;27;20023;-32
2022/04/06 09:32:31;;;;;;;3.47;2.40;;;;;;;15.13;42.49;96333.75;5135371;27;20413;-30
2022/04/06 09:34:56;;;;;;;6.70;3.30;;;;;;;15.19;42.50;96337.41;5135260;27;20023;-31
2022/04/06 09:37:30;;;;;;;6.20;2.90;;;;;;;15.18;42.62;96340.59;5135119;27;20118;-31
2022/04/06 09:40:06;;;;;;;5.03;2.85;;;;;;;15.13;42.45;96339.22;5135053;27;20463;-31
2022/04/06 09:42:31;;;;;;;8.50;3.92;;;;;;;15.06;42.83;96328.63;5135133;27;20463;-30
2022/04/06 09:47:53;;;;;;;10.10;4.68;;;;;;;15.11;42.84;96330.72;5134975;27;20026;-31
2022/04/06 09:50:24;;;;;;;10.32;4.68;;;;;;;15.16;42.74;96332.84;5135052;27;20019;-32
2022/04/06 09:52:51;;;;;;;9.65;4.18;;;;;;;15.16;42.83;96326.63;5135065;27;20038;-31
2022/04/06 09:55:19;;;;;;;8.50;4.72;;;;;;;15.15;42.81;96336.03;5134948;27;20031;-32
2022/04/06 09:57:47;;;;;;;8.43;4.53;;;;;;;15.11;42.82;96327.97;5134939;27;20035;-31
2022/04/06 10:00:18;;;;;;;9.13;4.85;;;;;;;15.15;42.81;96334.06;5134768;27;20030;-31
2022/04/06 10:03:11;;;;;;;8.73;4.00;;;;;;;15.12;42.72;96328.75;5134634;27;20055;-31
2022/04/06 10:05:38;;;;;;;10.10;4.57;;;;;;;14.95;43.29;96328.34;5130403;27;20035;-31
2022/04/06 10:08:06;;;;;;;8.60;4.75;;;;;;;14.98;43.33;96332.84;5134853;27;20486;-31
2022/04/06 10:10:38;;;;;;;8.25;4.25;;;;;;;14.90;43.56;96337.13;5133639;27;20027;-31
2022/04/06 10:13:04;;;;;;;7.78;4.50;;;;;;;15.17;42.88;96328.13;5134396;27;20383;-31
2022/04/06 10:15:31;;;;;;;7.65;4.10;;;;;;;15.09;43.13;96338.59;5134608;27;20031;-31
2022/04/06 10:17:57;;;;;;;7.38;4.35;;;;;;;15.10;43.10;96326.47;5134487;27;20458;-31
2022/04/06 10:20:41;;;;;;;9.85;4.60;;;;;;;15.12;43.03;96334.97;5134359;27;20031;-31
2022/04/06 10:23:17;;;;;;;6.90;3.97;;;;;;;15.02;43.43;96328.00;5134483;27;20034;-31
2022/04/06 10:25:48;;;;;;;7.05;4.03;;;;;;;14.95;43.53;96334.56;5134505;27;20026;-31
2022/04/06 10:28:14;;;;;;;8.15;4.13;;;;;;;14.92;43.95;96340.16;5134470;27;20031;-31
2022/04/06 10:30:40;;;;;;;6.65;3.85;;;;;;;14.95;43.44;96347.44;5134324;27;20023;-31
2022/04/06 10:33:21;;;;;;;7.78;3.70;;;;;;;15.01;43.57;96346.38;5134586;27;20045;-32
2022/04/06 10:35:47;;;;;;;6.07;3.88;;;;;;;15.09;43.34;96350.28;5134460;28;20027;-32
2022/04/06 10:38:16;;;;;;;5.53;3.47;;;;;;;15.05;43.64;96344.25;5134249;28;20019;-31
2022/04/06 10:40:45;;;;;;;6.40;3.80;;;;;;;15.06;43.59;96339.53;5134272;28;20045;-30
2022/04/06 10:43:40;;;;;;;5.13;3.25;;;;;;;15.01;43.65;96343.63;5134289;28;20023;-30
2022/04/06 10:46:10;;;;;;;8.90;3.70;;;;;;;15.10;43.17;96348.31;5134203;28;20111;-31
2022/04/06 10:48:56;;;;;;;6.85;3.42;;;;;;;14.89;44.19;96338.34;5134209;28;20098;-31
2022/04/06 10:51:37;;;;;;;6.30;3.20;;;;;;;14.90;44.19;96345.31;5134250;28;20023;-30
2022/04/06 10:54:14;;;;;;;5.22;3.70;;;;;;;14.97;43.73;96336.81;5134114;28;20050;-31
2022/04/06 10:56:59;;;;;;;8.60;3.42;;;;;;;14.96;43.87;96336.03;5134025;28;20036;-32
2022/04/06 10:59:27;;;;;;;6.60;3.13;;;;;;;14.90;44.01;96348.03;5134311;28;20096;-31
2022/04/06 11:02:28;;;;;;;6.20;3.03;;;;;;;14.82;44.19;96341.38;5134260;28;20034;-31
2022/04/06 11:04:54;;;;;;;4.80;3.20;;;;;;;14.84;44.08;96345.16;5079669;28;20043;-31
2022/04/06 11:10:25;;;;;;;5.07;3.10;;;;;;;14.60;43.76;96344.25;5134228;28;20046;-31
2022/04/06 11:13:02;;;;;;;6.78;3.15;;;;;;;14.67;44.25;96342.00;5134129;28;20035;-30
2022/04/06 11:15:40;;;;;;;4.43;2.90;;;;;;;14.73;44.12;96325.75;5133987;28;20383;-31
2022/04/06 11:18:48;;;;;;;6.45;2.70;;;;;;;14.65;43.95;96321.81;5134052;28;20512;-31
2022/04/06 11:21:14;;;;;;;5.10;2.90;;;;;;;14.73;43.47;96323.03;5134003;27;20030;-31
2022/04/06 11:23:41;;;;;;;6.22;2.80;;;;;;;14.69;43.65;96319.72;5137687;27;20475;-30
2022/04/06 11:26:07;;;;;;;3.90;2.17;;;;;;;14.79;43.33;96318.47;5138017;27;20023;-31
2022/04/06 11:28:32;;;;;;;5.55;2.40;;;;;;;14.60;42.88;96315.00;5137716;27;20019;-29
2022/04/06 11:31:02;;;;;;;5.15;2.90;;;;;;;14.48;43.31;96310.44;5137635;27;20027;-31
2022/04/06 11:33:40;;;;;;;3.75;2.45;;;;;;;14.69;42.88;96295.91;5137613;27;20015;-31
2022/04/06 11:36:19;;;;;;;5.57;3.25;;;;;;;14.81;42.44;96305.13;5137828;27;20114;-30
2022/04/06 11:38:49;;;;;;;5.72;3.47;;;;;;;14.84;42.12;96289.78;5137570;27;20030;-31
2022/04/06 11:41:15;;;;;;;5.22;3.20;;;;;;;15.01;41.70;96288.25;5137348;27;20020;-31
2022/04/06 11:43:42;;;;;;;4.97;3.10;;;;;;;14.84;41.86;96284.34;5137488;27;20048;-31
2022/04/06 11:46:08;;;;;;;6.97;3.45;;;;;;;14.80;42.18;96295.44;5137459;27;20023;-31